Weather at Laichingen Airport

Public forecast

Using degrees Celsius for public forecast. Weather courtesy of forecast.io.

Closest aviation weather report (METAR) to Laichingen Airport

Closest report is Laupheim Air Base, 19.8 nm (36.7 km) SSE. Retrieved 2020/09/23 13:20 UTC (0 seconds ago):

ETHL 231320Z 23008KT 9999 VCSH SCT020TCU BKN080 19/13 Q1009 BLU BLU TEMPO WHT

Closest aviation forecast (TAF) to Laichingen Airport

Forecast is more than 12 hours old.

Closest forecast is Laupheim Air Base, 19.8 nm (36.7 km) SSE. Retrieved 2017/01/30 06:45 UTC (4 years ago):

TAF TAF COR ETHL 300542Z 3006/3018 22005KT 4000 BR SCT100 BKN220 BECMG 3008/3010 23005KT 6000 RA SCT040 BKN060 TEMPO 3009/3018 22012KT 3000 -FZRA BKN012 BKN020